createdAt,value
2022-12-15T00:01:42.552Z,100373.47
2022-12-15T00:04:27.531Z,100389.56
2022-12-15T00:07:12.379Z,100384.16
2022-12-15T00:09:57.770Z,100377.13
2022-12-15T00:12:43.122Z,100370.00
2022-12-15T00:15:28.415Z,100375.34
2022-12-15T00:18:13.303Z,100368.25
2022-12-15T00:20:58.383Z,100377.19
2022-12-15T00:23:43.236Z,100387.03
2022-12-15T00:26:28.308Z,100389.63
2022-12-15T00:29:13.818Z,100401.19
2022-12-15T00:31:58.858Z,100403.94
2022-12-15T00:34:43.948Z,100391.47
2022-12-15T00:37:29.305Z,100399.50
2022-12-15T00:39:58.890Z,100395.91
2022-12-15T00:42:26.639Z,100396.84
2022-12-15T00:44:53.183Z,100394.19
2022-12-15T00:47:19.698Z,100395.94
2022-12-15T00:50:05.038Z,100403.13
2022-12-15T00:52:49.959Z,100400.31
2022-12-15T00:55:34.935Z,100394.22
2022-12-15T00:58:19.806Z,100393.25
2022-12-15T01:01:04.641Z,100396.00
2022-12-15T01:03:50.258Z,100395.97
2022-12-15T01:06:37.217Z,100393.31
2022-12-15T01:09:24.729Z,100394.25
2022-12-15T01:12:09.988Z,100404.97
2022-12-15T01:14:55.395Z,100398.72
2022-12-15T01:17:40.329Z,100400.50
2022-12-15T01:20:17.247Z,100405.81
2022-12-15T01:22:54.647Z,100408.53
2022-12-15T01:25:23.177Z,100402.22
2022-12-15T01:27:50.003Z,100395.19
2022-12-15T01:30:19.638Z,100399.63
2022-12-15T01:32:46.604Z,100414.78
2022-12-15T01:35:13.381Z,100412.97
2022-12-15T01:37:40.021Z,100413.03
2022-12-15T01:40:26.339Z,100411.25
2022-12-15T01:42:52.889Z,100420.13
2022-12-15T01:45:28.331Z,100416.56
2022-12-15T01:48:07.772Z,100420.09
2022-12-15T01:50:56.559Z,100414.78
2022-12-15T01:53:23.167Z,100418.34
2022-12-15T01:55:50.324Z,100417.47
2022-12-15T01:58:18.188Z,100424.56
2022-12-15T02:00:44.842Z,100439.75
2022-12-15T02:03:12.461Z,100435.31
2022-12-15T02:05:40.218Z,100442.41
2022-12-15T02:08:07.179Z,100439.78
2022-12-15T02:10:49.340Z,100459.22
2022-12-15T02:13:22.070Z,100455.69
2022-12-15T02:15:51.490Z,100466.38
2022-12-15T02:18:29.762Z,100457.47
2022-12-15T02:21:05.039Z,100451.31
2022-12-15T02:24:10.582Z,100446.84
2022-12-15T02:26:55.013Z,100450.38
2022-12-15T02:29:42.578Z,100447.69
2022-12-15T02:32:17.040Z,100445.06
2022-12-15T02:34:50.250Z,100444.19
2022-12-15T02:37:36.776Z,100437.94
2022-12-15T02:40:06.160Z,100438.00
2022-12-15T02:42:33.598Z,100447.81
2022-12-15T02:45:04.212Z,100447.88
2022-12-15T02:48:21.354Z,100444.25
2022-12-15T02:50:50.876Z,100445.06
2022-12-15T02:53:41.892Z,100440.72
2022-12-15T02:56:39.275Z,100437.22
2022-12-15T02:59:12.483Z,100436.28
2022-12-15T03:01:41.193Z,100439.03
2022-12-15T03:04:09.687Z,100443.41
2022-12-15T03:06:36.229Z,100456.72
2022-12-15T03:09:02.803Z,100462.06
2022-12-15T03:11:29.620Z,100455.78
2022-12-15T03:13:56.135Z,100451.28
2022-12-15T03:16:22.938Z,100450.44
2022-12-15T03:18:49.500Z,100437.13
2022-12-15T03:21:16.051Z,100434.41
2022-12-15T03:23:42.587Z,100432.75
2022-12-15T03:26:09.108Z,100433.72
2022-12-15T03:28:35.660Z,100432.78
2022-12-15T03:31:02.173Z,100431.00
2022-12-15T03:33:28.908Z,100437.28
2022-12-15T03:35:55.819Z,100437.13
2022-12-15T03:38:22.400Z,100429.09
2022-12-15T03:40:48.976Z,100439.81
2022-12-15T03:43:15.490Z,100434.47
2022-12-15T03:45:42.079Z,100430.84
2022-12-15T03:48:08.628Z,100446.03
2022-12-15T03:50:35.588Z,100439.78
2022-12-15T03:53:03.279Z,100439.78
2022-12-15T03:55:30.130Z,100435.41
2022-12-15T03:57:57.348Z,100448.66
2022-12-15T04:00:27.130Z,100455.72
2022-12-15T04:02:54.143Z,100453.97
2022-12-15T04:05:26.367Z,100450.41
2022-12-15T04:07:56.849Z,100450.38
2022-12-15T04:10:27.393Z,100441.44
2022-12-15T04:13:03.207Z,100445.00
2022-12-15T04:15:29.721Z,100444.09
2022-12-15T04:17:56.780Z,100443.22
2022-12-15T04:20:23.307Z,100436.09
2022-12-15T04:22:50.768Z,100438.75
2022-12-15T04:25:41.056Z,100445.91
2022-12-15T04:28:26.982Z,100450.38
2022-12-15T04:31:18.240Z,100450.44
2022-12-15T04:34:06.868Z,100457.50
2022-12-15T04:36:52.375Z,100447.69
2022-12-15T04:39:37.447Z,100457.44
2022-12-15T04:42:22.699Z,100450.31
2022-12-15T04:45:08.839Z,100447.66
2022-12-15T04:47:53.883Z,100449.44
2022-12-15T04:50:39.080Z,100441.44
2022-12-15T04:53:35.281Z,100444.19
2022-12-15T04:56:20.997Z,100439.72
2022-12-15T04:59:06.303Z,100434.38
2022-12-15T05:01:52.148Z,100436.09
2022-12-15T05:04:38.082Z,100429.91
2022-12-15T05:07:23.450Z,100436.09
2022-12-15T05:10:14.377Z,100443.22
2022-12-15T05:13:00.400Z,100437.94
2022-12-15T05:15:45.506Z,100452.09
2022-12-15T05:18:30.362Z,100444.13
2022-12-15T05:21:16.919Z,100450.44
2022-12-15T05:24:02.316Z,100443.31
2022-12-15T05:26:52.357Z,100443.28
2022-12-15T05:29:38.482Z,100447.72
2022-12-15T05:32:05.212Z,100450.38
2022-12-15T05:34:33.183Z,100453.81
2022-12-15T05:37:01.287Z,100444.94
2022-12-15T05:39:28.015Z,100454.75
2022-12-15T05:41:55.490Z,100447.59
2022-12-15T05:44:22.571Z,100444.97
2022-12-15T05:46:49.194Z,100440.53
2022-12-15T05:49:16.751Z,100444.03
2022-12-15T05:51:45.516Z,100443.16
2022-12-15T05:54:15.403Z,100444.94
2022-12-15T05:56:41.919Z,100452.09
2022-12-15T05:59:08.436Z,100452.94
2022-12-15T06:01:35.569Z,100459.09
2022-12-15T06:04:02.302Z,100452.88
2022-12-15T06:06:29.118Z,100457.28
2022-12-15T06:08:55.710Z,100460.88
2022-12-15T06:11:22.429Z,100456.47
2022-12-15T06:13:49.496Z,100464.50
2022-12-15T06:16:18.258Z,100460.06
2022-12-15T06:18:50.467Z,100462.75
2022-12-15T06:21:19.724Z,100462.75
2022-12-15T06:23:46.831Z,100472.50
2022-12-15T06:26:13.328Z,100476.94
2022-12-15T06:28:40.126Z,100473.28
2022-12-15T06:31:08.848Z,100473.34
2022-12-15T06:33:36.513Z,100476.84
2022-12-15T06:36:08.284Z,100474.19
2022-12-15T06:38:35.381Z,100472.41
2022-12-15T06:41:03.426Z,100466.25
2022-12-15T06:43:31.268Z,100468.94
2022-12-15T06:45:58.150Z,100472.50
2022-12-15T06:48:25.031Z,100468.09
2022-12-15T06:50:52.473Z,100472.53
2022-12-15T06:53:20.628Z,100476.88
2022-12-15T06:55:47.627Z,100475.09
2022-12-15T06:58:15.196Z,100474.13
2022-12-15T07:00:43.653Z,100486.66
2022-12-15T07:03:15.430Z,100487.56
2022-12-15T07:05:43.833Z,100496.53
2022-12-15T07:08:15.440Z,100498.19
2022-12-15T07:10:44.817Z,100498.03
2022-12-15T07:13:12.416Z,100501.53
2022-12-15T07:15:40.232Z,100511.25
2022-12-15T07:18:07.496Z,100512.88
2022-12-15T07:20:34.056Z,100507.50
2022-12-15T07:23:00.732Z,100520.69
2022-12-15T07:25:27.260Z,100514.41
2022-12-15T07:27:53.777Z,100518.75
2022-12-15T07:30:20.350Z,100515.16
2022-12-15T07:32:50.249Z,100516.00
2022-12-15T07:35:18.029Z,100525.78
2022-12-15T07:37:44.615Z,100520.44
2022-12-15T07:40:11.469Z,100523.09
2022-12-15T07:42:38.060Z,100524.81
2022-12-15T07:45:05.485Z,100531.97
2022-12-15T07:47:32.258Z,100532.78
2022-12-15T07:49:58.793Z,100531.00
2022-12-15T07:52:25.755Z,100537.16
2022-12-15T07:54:52.315Z,100538.13
2022-12-15T07:57:18.897Z,100535.38
2022-12-15T07:59:45.423Z,100536.25
2022-12-15T08:02:13.171Z,100543.41
2022-12-15T08:04:40.508Z,100542.47
2022-12-15T08:07:09.109Z,100540.69
2022-12-15T08:09:36.079Z,100538.13
2022-12-15T08:12:02.697Z,100550.63
2022-12-15T08:14:29.415Z,100557.75
2022-12-15T08:16:56.002Z,100551.56
2022-12-15T08:19:23.848Z,100552.41
2022-12-15T08:21:50.776Z,100558.66
2022-12-15T08:24:17.696Z,100559.56
2022-12-15T08:26:44.497Z,100561.31
2022-12-15T08:32:03.413Z,100571.97
2022-12-15T08:34:30.097Z,100576.34
2022-12-15T08:36:56.767Z,100571.03
2022-12-15T08:39:23.293Z,100578.94
2022-12-15T08:41:50.075Z,100579.81
2022-12-15T08:44:17.335Z,100573.63
2022-12-15T08:46:43.892Z,100560.28
2022-12-15T08:49:10.562Z,100566.59
2022-12-15T08:51:37.226Z,100563.03
2022-12-15T08:54:03.802Z,100563.06
2022-12-15T08:56:30.415Z,100564.78
2022-12-15T08:59:01.790Z,100569.31
2022-12-15T09:01:31.165Z,100566.66
2022-12-15T09:03:58.124Z,100570.19
2022-12-15T09:06:26.809Z,100570.19
2022-12-15T09:09:00.168Z,100577.31
2022-12-15T09:11:28.357Z,100577.47
2022-12-15T09:13:54.959Z,100590.72
2022-12-15T09:16:22.445Z,100580.09
2022-12-15T09:18:51.612Z,100587.22
2022-12-15T09:21:22.279Z,100582.69
2022-12-15T09:23:52.971Z,100586.31
2022-12-15T09:26:21.346Z,100580.97
2022-12-15T09:28:50.274Z,100584.59
2022-12-15T09:31:28.322Z,100587.28
2022-12-15T09:33:56.648Z,100590.03
2022-12-15T09:36:23.834Z,100591.84
2022-12-15T09:38:50.543Z,100595.31
2022-12-15T09:41:25.354Z,100608.56
2022-12-15T09:43:56.507Z,100605.00
2022-12-15T09:46:23.290Z,100607.66
2022-12-15T09:48:50.544Z,100609.34
2022-12-15T09:51:18.580Z,100613.72
2022-12-15T09:53:54.784Z,100615.50
2022-12-15T09:56:28.474Z,100608.34
2022-12-15T09:59:01.367Z,100606.47
2022-12-15T10:01:52.609Z,100602.84
2022-12-15T10:05:06.431Z,100593.09
2022-12-15T10:07:46.234Z,100601.94
2022-12-15T10:10:24.116Z,100607.34
2022-12-15T10:13:01.120Z,100594.81
2022-12-15T10:15:34.394Z,100598.28
2022-12-15T10:18:10.219Z,100590.22
2022-12-15T10:20:36.929Z,100585.72
2022-12-15T10:23:12.716Z,100584.72
2022-12-15T10:25:39.779Z,100579.31
2022-12-15T10:28:24.633Z,100583.78
2022-12-15T10:30:59.549Z,100585.50
2022-12-15T10:33:31.512Z,100575.72
2022-12-15T10:35:58.778Z,100582.84
2022-12-15T10:38:37.935Z,100590.78
2022-12-15T10:41:09.902Z,100599.75
2022-12-15T10:43:38.788Z,100592.63
2022-12-15T10:46:05.391Z,100589.03
2022-12-15T10:48:31.999Z,100585.38
2022-12-15T10:51:13.569Z,100592.38
2022-12-15T10:53:50.235Z,100595.06
2022-12-15T10:56:23.847Z,100595.97
2022-12-15T10:58:56.655Z,100594.13
2022-12-15T11:01:27.384Z,100594.19
2022-12-15T11:03:55.012Z,100590.63
2022-12-15T11:06:24.883Z,100592.44
2022-12-15T11:08:54.440Z,100592.53
2022-12-15T11:11:47.154Z,100590.63
2022-12-15T11:14:17.570Z,100588.81
2022-12-15T11:16:56.127Z,100588.75
2022-12-15T11:19:50.302Z,100594.97
2022-12-15T11:22:35.955Z,100589.72
2022-12-15T11:25:24.464Z,100591.47
2022-12-15T11:27:54.724Z,100591.56
2022-12-15T11:30:22.553Z,100585.41
2022-12-15T11:32:53.564Z,100586.25
2022-12-15T11:35:46.397Z,100590.72
2022-12-15T11:38:52.112Z,100586.31
2022-12-15T11:41:43.230Z,100581.91
2022-12-15T11:44:24.390Z,100590.84
2022-12-15T11:47:16.201Z,100593.59
2022-12-15T11:50:03.541Z,100590.09
2022-12-15T11:52:30.132Z,100585.72
2022-12-15T11:55:37.517Z,100594.47
2022-12-15T11:58:23.100Z,100592.69
2022-12-15T12:01:25.023Z,100589.03
2022-12-15T12:04:26.509Z,100587.22
2022-12-15T12:07:02.069Z,100580.09
2022-12-15T12:09:43.812Z,100581.84
2022-12-15T12:12:24.662Z,100581.00
2022-12-15T12:15:09.770Z,100582.75
2022-12-15T12:17:45.513Z,100581.94
2022-12-15T12:20:25.314Z,100589.91
2022-12-15T12:23:04.885Z,100589.91
2022-12-15T12:25:35.103Z,100590.84
2022-12-15T12:28:05.773Z,100587.25
2022-12-15T12:30:39.224Z,100589.94
2022-12-15T12:33:14.056Z,100599.72
2022-12-15T12:36:11.518Z,100590.75
2022-12-15T12:38:50.472Z,100597.94
2022-12-15T12:41:45.128Z,100603.19
2022-12-15T12:44:42.934Z,100590.75
2022-12-15T12:47:29.783Z,100583.69
2022-12-15T12:50:02.387Z,100586.22
2022-12-15T12:52:35.192Z,100585.41
2022-12-15T12:55:26.116Z,100579.22
2022-12-15T12:57:53.284Z,100576.50
2022-12-15T13:00:28.322Z,100572.94
2022-12-15T13:03:21.262Z,100570.19
2022-12-15T13:05:50.581Z,100576.50
2022-12-15T13:08:29.015Z,100585.31
2022-12-15T13:10:56.457Z,100568.56
2022-12-15T13:13:29.527Z,100572.94
2022-12-15T13:16:06.010Z,100579.13
2022-12-15T13:19:06.652Z,100571.16
2022-12-15T13:21:42.248Z,100560.53
2022-12-15T13:24:30.617Z,100558.72
2022-12-15T13:27:09.067Z,100556.91
2022-12-15T13:29:37.127Z,100550.75
2022-12-15T13:32:04.045Z,100559.59
2022-12-15T13:34:38.907Z,100564.09
2022-12-15T13:37:08.139Z,100553.41
2022-12-15T13:39:35.894Z,100557.97
2022-12-15T13:42:34.161Z,100557.00
2022-12-15T13:44:51.858Z,100558.88
2022-12-15T13:47:29.198Z,100556.16
2022-12-15T13:50:03.594Z,100554.28
2022-12-15T13:53:16.634Z,100558.84
2022-12-15T13:55:28.010Z,100550.91
2022-12-15T13:57:58.719Z,100560.78
2022-12-15T14:00:25.359Z,100567.84
2022-12-15T14:02:54.760Z,100550.94
2022-12-15T14:05:22.684Z,100551.78
2022-12-15T14:08:00.415Z,100553.50
2022-12-15T14:10:40.645Z,100571.31
2022-12-15T14:13:28.561Z,100565.97
2022-12-15T14:15:58.443Z,100562.44
2022-12-15T14:18:29.975Z,100560.56
2022-12-15T14:20:57.319Z,100567.75
2022-12-15T14:23:30.842Z,100564.13
2022-12-15T14:26:06.952Z,100569.53
2022-12-15T14:28:35.991Z,100569.53
2022-12-15T14:31:07.780Z,100564.97
2022-12-15T14:33:37.631Z,100567.75
2022-12-15T14:36:06.791Z,100573.00
2022-12-15T14:38:40.825Z,100567.59
2022-12-15T14:41:09.024Z,100565.66
2022-12-15T14:43:37.929Z,100573.59
2022-12-15T14:46:15.549Z,100577.00
2022-12-15T14:48:56.820Z,100572.44
2022-12-15T14:51:25.684Z,100568.75
2022-12-15T14:53:53.434Z,100562.47
2022-12-15T14:56:25.695Z,100565.13
2022-12-15T14:59:04.390Z,100561.44
2022-12-15T15:01:57.715Z,100564.09
2022-12-15T15:04:32.830Z,100564.09
2022-12-15T15:07:01.294Z,100564.97
2022-12-15T15:09:31.341Z,100553.44
2022-12-15T15:12:04.780Z,100552.56
2022-12-15T15:14:38.146Z,100548.91
2022-12-15T15:17:05.914Z,100551.59
2022-12-15T15:19:36.155Z,100553.31
2022-12-15T15:22:05.924Z,100548.09
2022-12-15T15:24:36.242Z,100547.19
2022-12-15T15:27:27.721Z,100550.72
2022-12-15T15:30:12.056Z,100547.25
2022-12-15T15:32:53.019Z,100552.69
2022-12-15T15:35:20.154Z,100557.94
2022-12-15T15:37:46.736Z,100555.34
2022-12-15T15:40:15.980Z,100555.34
2022-12-15T15:42:45.241Z,100558.06
2022-12-15T15:45:15.998Z,100550.91
2022-12-15T15:47:45.967Z,100555.19
2022-12-15T15:50:14.608Z,100560.59
2022-12-15T15:52:41.873Z,100563.25
2022-12-15T15:55:15.756Z,100566.75
2022-12-15T15:57:42.313Z,100574.91
2022-12-15T16:00:18.224Z,100576.66
2022-12-15T16:02:44.966Z,100570.28
2022-12-15T16:05:11.666Z,100572.94
2022-12-15T16:07:38.292Z,100572.88
2022-12-15T16:10:17.541Z,100576.47
2022-12-15T16:12:47.926Z,100580.88
2022-12-15T16:15:26.281Z,100575.78
2022-12-15T16:17:53.571Z,100576.66
2022-12-15T16:20:21.831Z,100571.34
2022-12-15T16:22:57.300Z,100575.88
2022-12-15T16:25:41.249Z,100568.63
2022-12-15T16:28:29.534Z,100573.03
2022-12-15T16:30:58.327Z,100574.69
2022-12-15T16:33:25.143Z,100576.47
2022-12-15T16:35:51.728Z,100571.94
2022-12-15T16:38:30.104Z,100581.63
2022-12-15T16:40:58.620Z,100582.66
2022-12-15T16:43:28.951Z,100582.50
2022-12-15T16:45:59.541Z,100586.00
2022-12-15T16:48:26.217Z,100591.31
2022-12-15T16:50:55.326Z,100592.22
2022-12-15T16:53:24.027Z,100596.59
2022-12-15T16:56:01.755Z,100597.47
2022-12-15T16:58:29.079Z,100596.47
2022-12-15T17:00:55.875Z,100597.50
2022-12-15T17:03:25.676Z,100606.47
2022-12-15T17:05:55.025Z,100606.53
2022-12-15T17:08:25.308Z,100598.47
2022-12-15T17:10:52.282Z,100604.63
2022-12-15T17:13:28.712Z,100609.09
2022-12-15T17:16:00.640Z,100616.22
2022-12-15T17:18:27.639Z,100620.69
2022-12-15T17:21:27.598Z,100618.06
2022-12-15T17:23:57.177Z,100621.59
2022-12-15T17:26:29.599Z,100617.25
2022-12-15T17:28:59.032Z,100617.25
2022-12-15T17:31:30.268Z,100603.94
2022-12-15T17:34:02.529Z,100613.72
2022-12-15T17:36:29.235Z,100611.88
2022-12-15T17:39:00.401Z,100610.03
2022-12-15T17:41:59.249Z,100617.25
2022-12-15T17:44:35.525Z,100620.78
2022-12-15T17:47:05.607Z,100612.78
2022-12-15T17:49:35.931Z,100619.88
2022-12-15T17:52:28.016Z,100623.50
2022-12-15T17:54:54.646Z,100630.69
2022-12-15T17:57:21.424Z,100634.19
2022-12-15T17:59:48.059Z,100628.84
2022-12-15T18:02:15.273Z,100627.03
2022-12-15T18:04:42.774Z,100627.00
2022-12-15T18:07:22.022Z,100630.50
2022-12-15T18:09:49.919Z,100633.97
2022-12-15T18:12:27.186Z,100639.22
2022-12-15T18:14:54.546Z,100646.41
2022-12-15T18:17:21.555Z,100649.06
2022-12-15T18:19:48.286Z,100655.13
2022-12-15T18:22:22.567Z,100665.94
2022-12-15T18:24:50.239Z,100650.72
2022-12-15T18:27:25.684Z,100653.50
2022-12-15T18:29:52.583Z,100666.00
2022-12-15T18:32:19.633Z,100665.16
2022-12-15T18:34:46.818Z,100671.31
2022-12-15T18:37:19.071Z,100683.81
2022-12-15T18:39:46.276Z,100682.91
2022-12-15T18:42:19.300Z,100682.94
2022-12-15T18:44:47.763Z,100683.72
2022-12-15T18:47:18.946Z,100692.56
2022-12-15T18:49:45.851Z,100694.53
2022-12-15T18:52:21.332Z,100695.38
2022-12-15T18:54:49.508Z,100694.47
2022-12-15T18:57:35.785Z,100705.22
2022-12-15T19:00:09.896Z,100706.13
2022-12-15T19:02:36.685Z,100708.81
2022-12-15T19:05:03.719Z,100707.94
2022-12-15T19:07:30.371Z,100703.41
2022-12-15T19:09:56.954Z,100707.91
2022-12-15T19:12:23.520Z,100705.22
2022-12-15T19:14:51.615Z,100715.09
2022-12-15T19:17:38.792Z,100721.25
2022-12-15T19:20:31.013Z,100726.69
2022-12-15T19:22:57.611Z,100735.69
2022-12-15T19:25:26.816Z,100734.84
2022-12-15T19:27:58.934Z,100742.84
2022-12-15T19:30:27.788Z,100754.47
2022-12-15T19:32:54.318Z,100742.78
2022-12-15T19:35:21.327Z,100756.13
2022-12-15T19:37:49.785Z,100762.28
2022-12-15T19:40:22.120Z,100758.72
2022-12-15T19:42:49.162Z,100760.63
2022-12-15T19:45:18.568Z,100764.19
2022-12-15T19:47:45.170Z,100765.97
2022-12-15T19:50:20.416Z,100767.84
2022-12-15T19:52:50.602Z,100769.63
2022-12-15T19:55:18.994Z,100776.69
2022-12-15T19:57:46.066Z,100769.44
2022-12-15T20:00:27.372Z,100777.50
2022-12-15T20:02:55.683Z,100778.28
2022-12-15T20:05:24.053Z,100777.38
2022-12-15T20:07:52.909Z,100767.53
2022-12-15T20:10:27.543Z,100771.13
2022-12-15T20:12:56.562Z,100784.44
2022-12-15T20:15:24.716Z,100778.22
2022-12-15T20:17:56.412Z,100792.44
2022-12-15T20:20:24.155Z,100788.94
2022-12-15T20:22:53.758Z,100797.97
2022-12-15T20:25:23.976Z,100799.56
2022-12-15T20:27:50.832Z,100800.47
2022-12-15T20:30:22.342Z,100801.31
2022-12-15T20:32:48.924Z,100809.28
2022-12-15T20:35:20.125Z,100819.00
2022-12-15T20:37:46.950Z,100803.84
2022-12-15T20:40:21.992Z,100828.81
2022-12-15T20:42:49.693Z,100826.22
2022-12-15T20:45:17.761Z,100825.34
2022-12-15T20:47:46.120Z,100824.44
2022-12-15T20:50:24.387Z,100832.56
2022-12-15T20:52:50.936Z,100822.72
2022-12-15T20:55:18.779Z,100831.69
2022-12-15T20:57:45.346Z,100833.56
2022-12-15T21:00:15.578Z,100834.47
2022-12-15T21:02:43.352Z,100831.94
2022-12-15T21:05:17.896Z,100829.25
2022-12-15T21:07:44.560Z,100819.41
2022-12-15T21:10:12.875Z,100831.97
2022-12-15T21:12:40.585Z,100833.84
2022-12-15T21:15:18.815Z,100834.59
2022-12-15T21:17:45.478Z,100839.91
2022-12-15T21:20:13.141Z,100848.16
2022-12-15T21:22:40.588Z,100850.97
2022-12-15T21:25:23.278Z,100849.97
2022-12-15T21:27:49.817Z,100854.47
2022-12-15T21:30:20.544Z,100850.88
2022-12-15T21:32:48.488Z,100859.94
2022-12-15T21:35:17.194Z,100864.34
2022-12-15T21:37:46.460Z,100872.44
2022-12-15T21:40:19.915Z,100868.94
2022-12-15T21:42:46.514Z,100882.31
2022-12-15T21:45:17.973Z,100885.00
2022-12-15T21:48:02.986Z,100885.94
2022-12-15T21:50:29.534Z,100901.19
2022-12-15T21:52:56.363Z,100900.38
2022-12-15T21:55:26.243Z,100905.66
2022-12-15T21:57:53.447Z,100914.56
2022-12-15T22:00:21.168Z,100921.75
2022-12-15T22:02:49.048Z,100915.47
2022-12-15T22:05:16.828Z,100920.00
2022-12-15T22:07:43.539Z,100914.63
2022-12-15T22:10:10.056Z,100911.09
2022-12-15T22:12:36.675Z,100920.94
2022-12-15T22:15:04.276Z,100918.31
2022-12-15T22:17:32.259Z,100918.31
2022-12-15T22:19:58.774Z,100925.44
2022-12-15T22:22:31.643Z,100927.31
2022-12-15T22:24:58.459Z,100920.13
2022-12-15T22:27:33.440Z,100921.13
2022-12-15T22:30:00.076Z,100923.81
2022-12-15T22:32:26.659Z,100922.81
2022-12-15T22:34:53.455Z,100929.09
2022-12-15T22:37:19.983Z,100929.13
2022-12-15T22:39:46.511Z,100934.50
2022-12-15T22:42:17.036Z,100936.28
2022-12-15T22:44:44.463Z,100938.06
2022-12-15T22:47:11.042Z,100943.34
2022-12-15T22:49:39.522Z,100943.44
2022-12-15T22:52:16.768Z,100941.69
2022-12-15T22:54:45.707Z,100939.84
2022-12-15T22:57:23.708Z,100943.44
2022-12-15T23:00:05.665Z,100937.22
2022-12-15T23:02:35.412Z,100938.19
2022-12-15T23:05:02.334Z,100948.88
2022-12-15T23:07:28.872Z,100936.34
2022-12-15T23:10:15.354Z,100939.97
2022-12-15T23:12:42.051Z,100930.19
2022-12-15T23:15:27.977Z,100948.88
2022-12-15T23:17:54.744Z,100951.56
2022-12-15T23:20:21.588Z,100948.03
2022-12-15T23:22:48.107Z,100942.69
2022-12-15T23:25:14.647Z,100950.72
2022-12-15T23:27:41.772Z,100947.22
2022-12-15T23:30:08.859Z,100949.78
2022-12-15T23:32:38.631Z,100948.06
2022-12-15T23:35:05.870Z,100947.25
2022-12-15T23:37:32.393Z,100956.06
2022-12-15T23:39:58.927Z,100949.00
2022-12-15T23:42:25.438Z,100957.91
2022-12-15T23:44:52.039Z,100950.75
2022-12-15T23:47:18.711Z,100952.59
2022-12-15T23:49:45.253Z,100954.41
2022-12-15T23:52:11.771Z,100962.38
2022-12-15T23:54:38.291Z,100968.56
2022-12-15T23:57:04.843Z,100980.22
2022-12-15T23:59:31.368Z,100986.44
